Time;durP1;ratioP1;P1;durP2;ratioP2;P2;SDS_P1;SDS_P2;PMS_P1;PMS_P2;Temp;Humidity;BMP_temperature;BMP_pressure;BME280_temperature;BME280_humidity;BME280_pressure;Samples;Min_cycle;Max_cycle;Signal;HPM_P1;HPM_P2
2022/12/20 00:03:30;;;;;;;6.47;5.20;;;8.60;99.90;;;;;;5929023;24;20216;-74
2022/12/20 00:06:06;;;;;;;9.68;5.65;;;9.30;99.90;;;;;;5897626;24;20016;-76
2022/12/20 00:08:58;;;;;;;7.63;5.07;;;9.50;99.90;;;;;;5973116;23;20329;-76
2022/12/20 00:11:50;;;;;;;7.47;5.82;;;9.50;99.90;;;;;;6011165;23;20082;-76
2022/12/20 00:25:46;;;;;;;7.35;4.53;;;9.30;99.90;;;;;;6118692;23;20304;-75
2022/12/20 00:32:56;;;;;;;6.32;4.60;;;9.30;99.90;;;;;;6045147;23;20246;-75
2022/12/20 00:38:07;;;;;;;10.18;5.25;;;9.30;99.90;;;;;;6151034;23;20228;-74
2022/12/20 00:41:01;;;;;;;6.72;5.13;;;9.40;99.90;;;;;;6140223;23;20017;-74
2022/12/20 00:43:56;;;;;;;;;;;;;;;;;;;;;
2022/12/20 00:49:49;;;;;;;7.07;4.22;;;9.10;99.90;;;;;;6082330;23;20017;-75
2022/12/20 00:53:12;;;;;;;8.02;4.97;;;8.80;99.90;;;;;;6103220;23;20085;-77
2022/12/20 00:56:06;;;;;;;6.03;5.03;;;9.30;99.90;;;;;;6121980;23;20077;-77
2022/12/20 00:58:52;;;;;;;5.72;5.00;;;10.10;99.90;;;;;;6103743;23;20018;-75
2022/12/20 01:01:40;;;;;;;5.72;4.85;;;9.30;99.90;;;;;;6103283;23;20277;-76
2022/12/20 01:04:08;;;;;;;6.38;4.43;;;9.10;99.90;;;;;;6102518;23;20030;-74
2022/12/20 01:07:24;;;;;;;6.57;4.65;;;10.40;99.90;;;;;;6072141;23;20395;-75
2022/12/20 01:09:58;;;;;;;6.33;4.77;;;9.10;99.90;;;;;;6041111;23;20293;-75
2022/12/20 01:12:52;;;;;;;7.38;4.65;;;9.80;99.90;;;;;;6103394;23;20078;-75
2022/12/20 01:15:21;;;;;;;5.25;4.35;;;9.30;99.90;;;;;;6175440;23;20180;-76
2022/12/20 01:18:16;;;;;;;5.68;4.22;;;9.20;99.90;;;;;;6188771;23;20008;-75
2022/12/20 01:21:43;;;;;;;5.70;4.00;;;9.30;99.90;;;;;;6158435;23;20009;-76
2022/12/20 01:31:17;;;;;;;5.70;4.20;;;8.50;99.90;;;;;;6119249;23;20026;-76
2022/12/20 01:37:41;;;;;;;;;;;;;;;;;;;;;
2022/12/20 01:40:40;;;;;;;7.25;3.65;;;9.30;99.90;;;;;;6097720;23;20010;-76
2022/12/20 02:18:02;;;;;;;5.43;4.10;;;9.10;99.90;;;;;;5954767;24;20332;-76
2022/12/20 02:24:46;;;;;;;6.65;3.92;;;9.30;99.90;;;;;;6011905;23;20047;-75
2022/12/20 02:27:52;;;;;;;;;;;;;;;;;;;;;
2022/12/20 02:34:39;;;;;;;;;;;;;;;;;;;;;
2022/12/20 02:37:26;;;;;;;3.95;3.47;;;9.50;99.90;;;;;;6042659;23;20018;-75
2022/12/20 02:39:55;;;;;;;6.75;3.83;;;9.40;99.90;;;;;;6051850;23;20025;-74
2022/12/20 02:46:07;;;;;;;6.13;3.90;;;9.90;99.90;;;;;;6108374;23;20069;-75
2022/12/20 02:49:13;;;;;;;5.38;4.00;;;9.30;99.90;;;;;;6136513;23;20013;-75
2022/12/20 02:51:49;;;;;;;5.00;3.75;;;9.30;99.90;;;;;;6143504;23;20117;-76
2022/12/20 02:54:27;;;;;;;4.75;3.60;;;9.40;99.90;;;;;;6143123;23;20013;-75
2022/12/20 02:57:04;;;;;;;6.03;3.50;;;9.30;99.90;;;;;;6141568;23;20013;-76
2022/12/20 02:59:48;;;;;;;3.70;3.33;;;9.30;99.90;;;;;;6141721;23;20009;-76
2022/12/20 03:02:14;;;;;;;6.03;3.95;;;9.40;99.90;;;;;;6166310;23;20088;-77
2022/12/20 03:12:34;;;;;;;6.65;3.60;;;;;;;;;;6129874;23;20022;-77
2022/12/20 03:15:06;;;;;;;5.07;4.05;;;9.40;99.90;;;;;;6155129;23;20515;-76
2022/12/20 03:30:16;;;;;;;4.97;4.20;;;9.40;99.90;;;;;;6130745;23;20020;-76
2022/12/20 03:40:27;;;;;;;7.68;4.95;;;9.60;99.90;;;;;;5937382;24;20320;-79
2022/12/20 03:55:18;;;;;;;5.03;3.40;;;9.80;99.90;;;;;;5924748;24;20009;-78
2022/12/20 03:57:52;;;;;;;6.45;4.70;;;8.90;99.90;;;;;;5927512;24;20021;-77
2022/12/20 04:00:19;;;;;;;5.05;3.78;;;9.50;99.90;;;;;;5912876;24;20013;-77
2022/12/20 04:02:45;;;;;;;7.78;4.43;;;9.70;99.90;;;;;;5922544;23;20088;-80
2022/12/20 04:05:11;;;;;;;4.50;3.80;;;9.70;99.90;;;;;;6072256;23;20389;-76
2022/12/20 04:07:54;;;;;;;7.93;4.63;;;9.50;99.90;;;;;;6068108;23;20232;-75
2022/12/20 04:10:20;;;;;;;6.00;3.72;;;9.50;99.90;;;;;;6127718;23;20012;-77
2022/12/20 04:12:49;;;;;;;7.88;4.63;;;10.30;99.90;;;;;;6193762;23;20028;-77
2022/12/20 04:15:14;;;;;;;5.95;4.65;;;9.70;99.90;;;;;;6169875;23;20009;-77
2022/12/20 04:18:19;;;;;;;;;;;;;;;;;;;;;
2022/12/20 04:37:24;;;;;;;7.47;4.40;;;8.90;99.90;;;;;;5957775;24;20024;-77
2022/12/20 04:40:15;;;;;;;5.60;4.13;;;9.20;99.90;;;;;;5972677;24;20031;-78
2022/12/20 04:42:43;;;;;;;6.47;4.72;;;9.70;99.90;;;;;;6019589;23;20009;-77
2022/12/20 04:45:58;;;;;;;;;;;;;;;;;;;;;
2022/12/20 04:48:53;;;;;;;5.93;4.57;;;9.80;99.90;;;;;;6174534;23;20020;-77
2022/12/20 04:51:28;;;;;;;5.88;4.32;;;10.00;99.90;;;;;;6194463;23;20020;-78
2022/12/20 04:53:56;;;;;;;5.90;4.97;;;9.60;99.90;;;;;;6169983;23;20496;-77
2022/12/20 04:56:43;;;;;;;8.95;5.15;;;9.30;99.90;;;;;;6145923;23;20020;-78
2022/12/20 05:02:59;;;;;;;5.78;4.65;;;9.70;99.90;;;;;;6120545;23;20067;-80
2022/12/20 05:17:59;;;;;;;;;;;;;;;;;;;;;
2022/12/20 05:28:24;;;;;;;6.53;4.80;;;10.20;99.90;;;;;;5901782;24;20060;-77
2022/12/20 05:31:01;;;;;;;6.05;4.07;;;10.30;99.90;;;;;;5903055;24;20011;-78
2022/12/20 05:34:06;;;;;;;6.65;3.90;;;9.90;99.90;;;;;;6008262;23;20131;-77
2022/12/20 05:37:13;;;;;;;6.93;4.30;;;9.90;99.90;;;;;;5993676;23;20031;-78
2022/12/20 05:40:25;;;;;;;8.55;4.97;;;10.40;99.90;;;;;;6017882;23;20019;-77
2022/12/20 05:42:54;;;;;;;7.22;4.40;;;9.20;99.90;;;;;;5994098;23;20020;-76
2022/12/20 05:45:20;;;;;;;6.82;4.43;;;10.80;99.90;;;;;;5993825;23;20046;-78
2022/12/20 05:47:45;;;;;;;6.45;4.70;;;10.30;99.90;;;;;;6131065;23;20243;-77
2022/12/20 05:50:11;;;;;;;6.07;4.38;;;9.90;99.90;;;;;;6195833;23;20013;-78
2022/12/20 05:52:53;;;;;;;;;;;;;;;;;;;;;
2022/12/20 05:55:19;;;;;;;6.15;4.38;;;10.00;99.90;;;;;;6194038;23;20019;-77
2022/12/20 05:57:45;;;;;;;4.93;4.05;;;10.10;99.90;;;;;;6170630;23;20299;-77
2022/12/20 06:01:41;;;;;;;5.35;3.70;;;10.30;99.90;;;;;;6171266;23;20066;-77
2022/12/20 06:03:57;;;;;;;6.00;4.05;;;9.10;99.90;;;;;;6160574;23;20072;-78
2022/12/20 06:06:23;;;;;;;5.78;4.15;;;10.10;99.90;;;;;;6197127;23;20020;-77
2022/12/20 06:08:52;;;;;;;5.20;3.72;;;10.20;99.90;;;;;;6171627;23;20222;-77
2022/12/20 06:11:17;;;;;;;7.25;3.80;;;10.10;99.90;;;;;;6147490;23;20013;-78
2022/12/20 06:13:45;;;;;;;5.25;4.07;;;10.10;99.90;;;;;;6146933;23;20012;-76
2022/12/20 06:16:21;;;;;;;;;;;;;;;;;;;;;
2022/12/20 06:18:48;;;;;;;8.00;4.25;;;10.20;99.90;;;;;;6173232;23;20315;-77
2022/12/20 06:21:15;;;;;;;5.18;3.63;;;10.40;99.90;;;;;;6172104;23;20381;-78
2022/12/20 06:23:43;;;;;;;6.20;4.18;;;10.10;99.90;;;;;;6195211;23;20294;-76
2022/12/20 06:26:15;;;;;;;6.57;3.90;;;10.40;99.90;;;;;;6171289;23;20066;-78
2022/12/20 06:32:06;;;;;;;;;;;;;;;;;;;;;
2022/12/20 06:34:47;;;;;;;4.80;3.70;;;10.10;99.90;;;;;;6076872;23;20018;-75
2022/12/20 06:38:03;;;;;;;;;;;;;;;;;;;;;
2022/12/20 06:40:35;;;;;;;8.50;4.38;;;10.10;99.90;;;;;;6077374;23;20018;-77
2022/12/20 06:43:12;;;;;;;4.07;3.65;;;10.30;99.90;;;;;;6075058;23;20296;-77
2022/12/20 06:45:37;;;;;;;5.35;3.50;;;9.30;99.90;;;;;;6074493;23;20030;-77
2022/12/20 06:48:03;;;;;;;6.53;3.78;;;10.40;99.90;;;;;;6052344;23;20046;-77
2022/12/20 06:50:29;;;;;;;3.85;2.47;;;10.20;99.90;;;;;;6053126;23;20220;-79
2022/12/20 06:52:54;;;;;;;4.88;3.20;;;10.30;99.90;;;;;;6076734;23;20022;-78
2022/12/20 06:55:30;;;;;;;4.78;3.90;;;10.40;99.90;;;;;;6054137;23;20332;-78
2022/12/20 07:01:00;;;;;;;5.43;3.70;;;10.40;99.90;;;;;;6041124;23;20293;-79
2022/12/20 07:03:34;;;;;;;8.00;4.28;;;10.40;99.90;;;;;;6150587;23;20227;-77
2022/12/20 07:10:02;;;;;;;;;;;;;;;;;;;;;
2022/12/20 07:12:44;;;;;;;6.18;4.25;;;10.40;99.90;;;;;;6196061;23;20016;-75
2022/12/20 07:15:10;;;;;;;4.30;3.75;;;10.20;99.90;;;;;;6169895;23;20016;-75
2022/12/20 07:17:36;;;;;;;4.93;4.40;;;10.30;99.90;;;;;;6195977;23;20378;-75
2022/12/20 07:20:01;;;;;;;5.50;4.45;;;10.20;99.90;;;;;;6145969;23;20008;-76
2022/12/20 07:23:05;;;;;;;6.57;4.30;;;10.40;99.90;;;;;;6170509;23;20107;-75
2022/12/20 07:26:05;;;;;;;7.55;5.40;;;10.50;99.90;;;;;;6169738;23;20139;-74
2022/12/20 07:32:45;;;;;;;;;;;;;;;;;;;;;
2022/12/20 07:35:28;;;;;;;11.07;5.78;;;10.50;99.90;;;;;;6028842;23;20463;-75
2022/12/20 07:38:08;;;;;;;9.48;6.45;;;10.60;99.90;;;;;;6075113;23;20144;-75
2022/12/20 07:45:16;;;;;;;7.82;6.50;;;9.90;99.90;;;;;;5930120;24;20075;-76
2022/12/20 08:07:07;;;;;;;6.68;5.72;;;10.50;99.90;;;;;;5908148;24;20134;-76
2022/12/20 08:09:39;;;;;;;6.55;5.68;;;9.40;99.90;;;;;;5943406;23;20368;-75
2022/12/20 08:12:08;;;;;;;8.70;7.25;;;10.90;99.90;;;;;;5988033;23;20012;-76
2022/12/20 08:14:34;;;;;;;6.95;5.70;;;10.60;99.90;;;;;;6035643;23;20014;-75
2022/12/20 08:16:59;;;;;;;8.35;6.18;;;10.60;99.90;;;;;;6103519;23;20041;-75
2022/12/20 08:19:25;;;;;;;6.82;5.88;;;11.00;99.90;;;;;;6080662;23;20057;-75
2022/12/20 08:22:21;;;;;;;;;;;;;;;;;;;;;
2022/12/20 08:25:11;;;;;;;10.35;6.60;;;10.60;99.90;;;;;;6078673;23;20065;-75
2022/12/20 08:27:37;;;;;;;8.98;6.07;;;10.90;99.90;;;;;;6047447;23;20022;-77
2022/12/20 08:30:07;;;;;;;8.75;6.18;;;10.70;99.90;;;;;;6048764;23;20014;-75
2022/12/20 08:32:33;;;;;;;7.97;5.45;;;11.00;99.90;;;;;;6074243;23;20435;-76
2022/12/20 08:35:01;;;;;;;7.20;5.57;;;10.70;99.90;;;;;;6129307;23;20064;-75
2022/12/20 08:37:27;;;;;;;6.90;4.88;;;10.70;99.90;;;;;;6084854;23;20018;-75
2022/12/20 08:39:53;;;;;;;6.63;5.30;;;11.00;99.90;;;;;;6108311;23;20045;-75
2022/12/20 08:42:18;;;;;;;5.65;4.70;;;10.80;99.90;;;;;;6108901;23;20058;-76
2022/12/20 08:44:47;;;;;;;7.10;5.10;;;10.60;99.90;;;;;;6107983;23;20009;-75
2022/12/20 08:47:12;;;;;;;5.30;4.47;;;10.70;99.90;;;;;;6083608;23;20024;-69
2022/12/20 08:49:38;;;;;;;5.28;4.07;;;10.90;99.90;;;;;;6109371;23;20243;-76
2022/12/20 08:52:04;;;;;;;6.20;4.68;;;10.90;99.90;;;;;;6084777;23;20017;-76
2022/12/20 08:55:06;;;;;;;;;;;;;;;;;;;;;
2022/12/20 08:58:30;;;;;;;6.53;4.25;;;10.80;99.90;;;;;;6146448;23;20021;-76
2022/12/20 09:01:05;;;;;;;5.97;3.85;;;10.60;99.90;;;;;;6135113;23;20032;-76
2022/12/20 09:03:42;;;;;;;5.10;3.90;;;10.80;99.90;;;;;;6139723;23;20051;-76
2022/12/20 09:24:57;;;;;;;;;;;10.70;99.90;;;;;;5785482;24;20116;-75
2022/12/20 09:31:25;;;;;;;5.18;3.80;;;10.20;99.90;;;;;;5743231;25;20036;-74
2022/12/20 09:35:12;;;;;;;4.72;3.33;;;10.70;99.90;;;;;;5792008;24;20023;-75
2022/12/20 09:38:48;;;;;;;5.30;3.38;;;10.30;99.90;;;;;;5773282;24;20020;-76
2022/12/20 09:41:52;;;;;;;;;;;10.80;99.90;;;;;;5743891;25;20024;-76
2022/12/20 09:54:48;;;;;;;4.00;3.42;;;10.90;99.90;;;;;;6004210;23;20029;-77
2022/12/20 09:57:32;;;;;;;9.18;4.55;;;10.90;99.90;;;;;;6103375;23;20275;-74
2022/12/20 10:00:27;;;;;;;4.60;3.40;;;10.90;99.90;;;;;;6078966;23;20021;-75
2022/12/20 10:03:31;;;;;;;;;;;;;;;;;;;;;
2022/12/20 10:06:59;;;;;;;4.90;3.47;;;11.30;99.90;;;;;;6161723;23;20013;-76
2022/12/20 10:09:47;;;;;;;4.10;2.78;;;11.10;99.90;;;;;;6046655;23;20081;-76
2022/12/20 10:12:34;;;;;;;4.43;3.17;;;10.70;99.90;;;;;;6045898;23;20050;-78
2022/12/20 10:19:16;;;;;;;5.55;3.10;;;10.90;99.90;;;;;;6063144;23;20038;-77
2022/12/20 10:22:06;;;;;;;3.22;2.67;;;11.10;99.90;;;;;;6048074;23;20100;-76
2022/12/20 10:25:16;;;;;;;4.93;2.88;;;11.00;99.90;;;;;;6048100;23;20011;-76
2022/12/20 10:27:59;;;;;;;;;;;11.10;99.90;;;;;;6068056;23;20306;-76
2022/12/20 10:30:27;;;;;;;6.25;3.20;;;10.90;99.90;;;;;;6117245;23;19938;-76
2022/12/20 10:32:56;;;;;;;8.57;3.58;;;11.00;99.90;;;;;;6140845;23;20040;-72
2022/12/20 10:36:15;;;;;;;;;;;;;;;;;;;;;
2022/12/20 10:44:14;;;;;;;;;;;;;;;;;;;;;
2022/12/20 10:51:05;;;;;;;5.20;3.63;;;10.40;99.90;;;;;;5986178;24;20340;-75
2022/12/20 10:54:53;;;;;;;6.00;3.33;;;10.90;99.90;;;;;;6027080;23;20051;-75
2022/12/20 10:58:13;;;;;;;4.45;3.05;;;10.80;99.90;;;;;;6002971;23;20019;-75
2022/12/20 11:05:26;;;;;;;5.05;2.50;;;10.20;99.90;;;;;;5957837;24;20087;-76
2022/12/20 11:09:20;;;;;;;;;;;;;;;;;;;;;
2022/12/20 11:13:07;;;;;;;;;;;;;;;;;;;;;
2022/12/20 11:16:54;;;;;;;3.70;2.97;;;11.70;99.90;;;;;;5926888;23;20026;-75
2022/12/20 11:43:39;;;;;;;7.60;3.72;;;11.20;99.90;;;;;;6038303;23;20072;-75
2022/12/20 11:54:48;;;;;;;;;;;;;;;;;;;;;
2022/12/20 11:58:32;;;;;;;5.45;3.88;;;10.00;99.90;;;;;;6066143;23;20018;-75
2022/12/20 12:27:22;;;;;;;5.93;3.60;;;10.30;99.90;;;;;;5942549;24;20088;-75
2022/12/20 12:34:35;;;;;;;4.95;4.05;;;11.10;99.90;;;;;;5985916;23;20345;-77
2022/12/20 12:49:32;;;;;;;5.80;4.45;;;11.10;99.90;;;;;;5830151;24;20022;-79
2022/12/20 13:56:54;;;;;;;7.15;6.45;;;10.60;99.90;;;;;;4150732;27;28702806;-76
2022/12/20 14:00:05;;;;;;;;;;;;;;;;;;;;;
2022/12/20 14:03:15;;;;;;;7.68;6.63;;;11.00;99.90;;;;;;5104526;28;20106;-76
2022/12/20 14:05:55;;;;;;;9.45;6.47;;;11.10;99.90;;;;;;5115700;28;20330;-76
2022/12/20 14:09:23;;;;;;;9.80;7.13;;;11.40;99.90;;;;;;5118826;28;20024;-77
2022/12/20 14:13:03;;;;;;;;;;;;;;;;;;;;;
2022/12/20 14:20:04;;;;;;;;;;;;;;;;;;;;;
2022/12/20 14:23:25;;;;;;;9.25;7.18;;;11.40;99.90;;;;;;5035270;28;20041;-77
2022/12/20 14:35:59;;;;;;;;;;;;;;;;;;;;;
2022/12/20 14:42:58;;;;;;;8.95;8.05;;;12.20;99.90;;;;;;4853515;29;20074;-77
2022/12/20 14:58:00;;;;;;;;;;;;;;;;;;;;;
2022/12/20 15:16:38;;;;;;;13.00;10.15;;;11.60;99.90;;;;;;4802821;29;20267;-76
2022/12/20 15:27:39;;;;;;;;;;;;;;;;;;;;;
2022/12/20 16:53:10;;;;;;;;;;;;;;;;;;;;;
2022/12/20 16:59:56;;;;;;;36.67;27.73;;;10.30;99.90;;;;;;6050093;23;20022;-77
2022/12/20 17:06:24;;;;;;;26.67;18.65;;;9.80;99.90;;;;;;6141804;23;20027;-77
2022/12/20 17:09:34;;;;;;;27.20;18.35;;;10.60;99.90;;;;;;6181226;22;20061;-77
2022/12/20 17:22:06;;;;;;;28.55;20.23;;;10.50;99.90;;;;;;6208115;22;20018;-77
2022/12/20 17:25:28;;;;;;;;;;;;;;;;;;;;;
2022/12/20 17:28:18;;;;;;;30.75;19.77;;;11.20;99.90;;;;;;6194339;22;20019;-78
2022/12/20 17:30:55;;;;;;;33.10;21.15;;;10.80;99.90;;;;;;6286941;22;20019;-78
2022/12/20 17:34:00;;;;;;;;;;;;;;;;;;;;;
2022/12/20 17:40:37;;;;;;;;;;;10.10;99.90;;;;;;6058309;23;20085;-78
2022/12/20 17:43:10;;;;;;;;;;;10.90;99.90;;;;;;6167150;22;20221;-76
2022/12/20 17:45:54;;;;;;;37.90;22.58;;;11.80;99.90;;;;;;6230150;22;19938;-79
2022/12/20 17:49:09;;;;;;;37.20;21.65;;;10.00;99.90;;;;;;6205275;22;20328;-78
2022/12/20 17:52:42;;;;;;;32.33;19.80;;;11.20;99.90;;;;;;6244265;22;20290;-79
2022/12/20 17:55:47;;;;;;;32.35;20.80;;;10.10;99.90;;;;;;6071769;23;20458;-79
2022/12/20 17:58:45;;;;;;;34.22;19.20;;;11.20;99.90;;;;;;6222972;22;20190;-77
2022/12/20 18:01:43;;;;;;;;;;;;;;;;;;;;;
2022/12/20 18:04:46;;;;;;;;;;;;;;;;;;;;;
2022/12/20 18:07:17;;;;;;;34.25;20.77;;;11.10;99.90;;;;;;6233639;22;20019;-78
2022/12/20 18:10:36;;;;;;;;;;;;;;;;;;;;;
2022/12/20 18:13:19;;;;;;;38.40;20.02;;;10.10;99.90;;;;;;6255502;22;20018;-77
2022/12/20 18:15:51;;;;;;;39.15;20.52;;;10.80;99.90;;;;;;6205094;22;20008;-77
2022/12/20 18:18:20;;;;;;;39.72;21.23;;;10.90;99.90;;;;;;6255995;22;20012;-77
2022/12/20 18:21:46;;;;;;;35.50;21.08;;;10.90;99.90;;;;;;6255888;22;20070;-78
2022/12/20 18:25:07;;;;;;;35.97;19.80;;;11.40;99.90;;;;;;6226975;22;20046;-79
2022/12/20 18:27:44;;;;;;;36.30;20.65;;;11.10;99.90;;;;;;6230519;22;20016;-78
2022/12/20 18:30:11;;;;;;;29.80;18.63;;;10.90;99.90;;;;;;6205232;22;20008;-78
2022/12/20 18:32:38;;;;;;;36.60;19.98;;;11.10;99.90;;;;;;6255508;22;20367;-78
2022/12/20 18:35:04;;;;;;;35.50;19.63;;;11.10;99.90;;;;;;6255313;22;20016;-77
2022/12/20 18:37:30;;;;;;;33.60;20.58;;;11.10;99.90;;;;;;6204607;22;20020;-78
2022/12/20 18:39:56;;;;;;;37.47;21.67;;;11.00;99.90;;;;;;6253643;22;20011;-77
2022/12/20 18:42:21;;;;;;;33.92;20.30;;;11.30;99.90;;;;;;6210379;22;20011;-78
2022/12/20 18:44:47;;;;;;;39.47;20.73;;;11.10;99.90;;;;;;6259669;22;20038;-77
2022/12/20 18:47:13;;;;;;;32.35;19.33;;;11.10;99.90;;;;;;6259262;22;20011;-78
2022/12/20 18:49:43;;;;;;;42.65;21.60;;;10.90;99.90;;;;;;6234357;22;20042;-78
2022/12/20 18:52:43;;;;;;;37.97;21.70;;;11.10;99.90;;;;;;6260552;22;20015;-78
2022/12/20 18:55:26;;;;;;;37.83;20.80;;;11.00;99.90;;;;;;6222023;22;20247;-77
2022/12/20 18:57:54;;;;;;;32.92;19.85;;;9.80;99.90;;;;;;6284930;22;20026;-78
2022/12/20 19:00:38;;;;;;;40.10;22.48;;;10.60;99.90;;;;;;6260404;22;20179;-77
2022/12/20 19:03:03;;;;;;;33.22;19.73;;;11.90;99.90;;;;;;6258920;22;20011;-76
2022/12/20 19:05:35;;;;;;;30.98;18.30;;;10.60;99.90;;;;;;6234070;22;20022;-78
2022/12/20 19:08:01;;;;;;;32.33;18.02;;;10.50;99.90;;;;;;6259240;22;20015;-78
2022/12/20 19:10:59;;;;;;;26.17;16.05;;;10.90;99.90;;;;;;6235106;22;20112;-78
2022/12/20 19:13:25;;;;;;;22.90;15.07;;;11.00;99.90;;;;;;6285661;22;20063;-78
2022/12/20 19:16:03;;;;;;;23.75;15.13;;;10.70;99.90;;;;;;6284563;22;20007;-78
2022/12/20 19:18:29;;;;;;;24.50;15.23;;;10.50;99.90;;;;;;6285802;22;20321;-78
2022/12/20 19:21:25;;;;;;;24.10;14.38;;;10.70;99.90;;;;;;6289549;22;20045;-78
2022/12/20 19:23:54;;;;;;;26.20;14.93;;;10.90;99.90;;;;;;6259501;22;20259;-78
2022/12/20 19:26:22;;;;;;;27.38;15.55;;;11.00;99.90;;;;;;6259836;22;20017;-78
2022/12/20 19:28:48;;;;;;;26.48;15.10;;;10.80;99.90;;;;;;6284865;22;20200;-77
2022/12/20 19:31:22;;;;;;;28.27;14.70;;;10.70;99.90;;;;;;6234614;22;20011;-78
2022/12/20 19:33:51;;;;;;;24.67;14.48;;;10.70;99.90;;;;;;6285217;22;20061;-78
2022/12/20 19:36:23;;;;;;;23.75;14.13;;;10.90;99.90;;;;;;6234181;22;20007;-78
2022/12/20 19:39:02;;;;;;;21.27;14.20;;;10.80;99.90;;;;;;6260140;22;20309;-78
2022/12/20 19:41:44;;;;;;;24.30;15.35;;;10.40;99.90;;;;;;6261207;22;20015;-79
2022/12/20 19:48:10;;;;;;;30.25;17.65;;;10.60;99.90;;;;;;6161402;23;20013;-78
2022/12/20 19:51:08;;;;;;;29.35;17.90;;;10.40;99.90;;;;;;6272486;22;20302;-79
2022/12/20 19:53:52;;;;;;;35.55;17.40;;;10.50;99.90;;;;;;6284901;22;20012;-77
2022/12/20 19:56:24;;;;;;;28.35;16.65;;;10.50;99.90;;;;;;6259816;22;20069;-79
2022/12/20 19:58:59;;;;;;;35.17;18.40;;;10.60;99.90;;;;;;6259139;22;20008;-78
2022/12/20 20:01:41;;;;;;;;;;;;;;;;;;;;;
2022/12/20 20:04:23;;;;;;;30.42;16.48;;;10.40;99.90;;;;;;6285477;22;20021;-79
2022/12/20 20:07:32;;;;;;;37.65;18.02;;;10.60;99.90;;;;;;6259403;22;20178;-79
2022/12/20 20:10:06;;;;;;;31.65;16.23;;;10.40;99.90;;;;;;6247793;22;20007;-78
2022/12/20 20:12:37;;;;;;;34.53;17.90;;;10.50;99.90;;;;;;6259474;22;20014;-78
2022/12/20 20:15:03;;;;;;;35.25;18.27;;;10.20;99.90;;;;;;6285490;22;20121;-78
2022/12/20 20:17:32;;;;;;;34.75;17.80;;;10.50;99.90;;;;;;6259976;22;20007;-78
2022/12/20 20:20:37;;;;;;;;;;;;;;;;;;;;;
2022/12/20 20:23:06;;;;;;;34.90;17.40;;;10.70;99.90;;;;;;6279054;22;20015;-78
2022/12/20 20:25:34;;;;;;;30.25;17.05;;;9.30;99.90;;;;;;6259909;22;20011;-77
2022/12/20 20:28:01;;;;;;;42.50;17.58;;;10.60;99.90;;;;;;6284626;22;20026;-77
2022/12/20 20:30:27;;;;;;;42.30;18.63;;;10.20;99.90;;;;;;6260055;22;20026;-69
2022/12/20 20:32:53;;;;;;;35.03;19.20;;;10.40;99.90;;;;;;6285302;22;20329;-77
2022/12/20 20:35:19;;;;;;;37.65;18.35;;;10.20;99.90;;;;;;6233388;22;20302;-77
2022/12/20 20:41:30;;;;;;;38.00;17.50;;;10.10;99.90;;;;;;6254941;22;20089;-78
2022/12/20 20:44:00;;;;;;;41.72;17.73;;;10.00;99.90;;;;;;6230969;22;20071;-78
2022/12/20 20:46:27;;;;;;;41.58;18.25;;;10.00;99.90;;;;;;6256671;22;20350;-78
2022/12/20 20:48:52;;;;;;;40.05;17.58;;;10.00;99.90;;;;;;6230410;22;20011;-78
2022/12/20 20:51:18;;;;;;;33.72;17.85;;;10.40;99.90;;;;;;6206313;22;20012;-78
2022/12/20 20:54:44;;;;;;;;;;;;;;;;;;;;;
2022/12/20 20:57:59;;;;;;;;;;;;;;;;;;;;;
2022/12/20 21:00:36;;;;;;;;;;;9.20;99.90;;;;;;6218956;23;20024;-78
2022/12/20 21:03:02;;;;;;;35.72;16.70;;;9.90;99.90;;;;;;6194424;23;19915;-78
2022/12/20 21:05:40;;;;;;;41.63;18.05;;;10.10;99.90;;;;;;6169660;23;20016;-78
2022/12/20 21:08:06;;;;;;;35.30;16.70;;;9.80;99.90;;;;;;6218776;23;20198;-78
2022/12/20 21:10:38;;;;;;;46.15;17.67;;;9.80;99.90;;;;;;6118659;23;20013;-79
2022/12/20 21:13:11;;;;;;;37.03;15.93;;;9.80;99.90;;;;;;6167326;23;20025;-78
2022/12/20 21:16:33;;;;;;;29.58;14.05;;;9.70;99.90;;;;;;6168307;23;20021;-78
2022/12/20 21:18:59;;;;;;;30.52;14.73;;;8.80;99.90;;;;;;6216231;23;20016;-76
2022/12/20 21:21:27;;;;;;;36.60;16.33;;;9.50;99.90;;;;;;6219822;23;20281;-77
2022/12/20 21:24:45;;;;;;;;;;;;;;;;;;;;;
2022/12/20 21:27:19;;;;;;;28.35;14.43;;;9.80;99.90;;;;;;6176597;22;20020;-77
2022/12/20 21:29:54;;;;;;;31.42;15.88;;;9.70;99.90;;;;;;6204339;22;20042;-78
2022/12/20 21:32:20;;;;;;;29.17;14.05;;;9.40;99.90;;;;;;6205464;22;20072;-77
2022/12/20 21:34:45;;;;;;;31.80;15.18;;;9.50;99.90;;;;;;6253823;22;20016;-77
2022/12/20 21:37:11;;;;;;;34.58;15.23;;;8.80;99.90;;;;;;6253061;22;20356;-77
2022/12/20 21:39:40;;;;;;;32.53;15.60;;;9.30;99.90;;;;;;6230215;22;20023;-77
2022/12/20 21:42:05;;;;;;;33.60;16.50;;;9.90;99.90;;;;;;6282848;22;20536;-77
2022/12/20 21:44:31;;;;;;;35.42;17.75;;;9.40;99.90;;;;;;6284951;22;20018;-77
2022/12/20 21:47:39;;;;;;;45.13;20.05;;;9.60;99.90;;;;;;6257925;22;20224;-78
2022/12/20 21:50:14;;;;;;;55.55;23.55;;;9.60;99.90;;;;;;6248941;22;20061;-78
2022/12/20 21:52:42;;;;;;;53.88;22.35;;;9.20;99.90;;;;;;6259122;22;20070;-78
2022/12/20 21:55:30;;;;;;;48.20;21.15;;;9.70;99.90;;;;;;6256225;22;20281;-77
2022/12/20 21:58:28;;;;;;;44.92;20.38;;;8.70;99.90;;;;;;6257859;22;20131;-78
2022/12/20 22:01:17;;;;;;;49.53;19.55;;;10.70;99.90;;;;;;6309291;22;20039;-79
2022/12/20 22:07:46;;;;;;;52.60;19.25;;;8.90;99.90;;;;;;6237282;22;20019;-78
2022/12/20 22:13:54;;;;;;;;;;;;;;;;;;;;;
2022/12/20 22:20:48;;;;;;;53.40;21.42;;;8.80;99.90;;;;;;6156110;23;20021;-77
2022/12/20 22:27:12;;;;;;;45.88;19.13;;;8.60;99.90;;;;;;6154690;23;20132;-75
2022/12/20 22:29:40;;;;;;;39.40;18.70;;;8.70;99.90;;;;;;6131803;23;20025;-78
2022/12/20 22:40:28;;;;;;;50.28;17.95;;;8.80;99.90;;;;;;6076410;23;20025;-79
2022/12/20 22:43:24;;;;;;;47.20;18.45;;;8.60;99.90;;;;;;6073884;23;20253;-77
2022/12/20 22:50:34;;;;;;;42.95;17.95;;;9.20;99.90;;;;;;5872659;24;20374;-76
2022/12/20 22:57:19;;;;;;;;;;;;;;;;;;;;;
2022/12/20 23:03:48;;;;;;;49.17;18.65;;;9.70;99.90;;;;;;5970382;24;20038;-77
2022/12/20 23:06:24;;;;;;;57.50;18.17;;;9.10;99.90;;;;;;5951118;23;20026;-78
2022/12/20 23:08:58;;;;;;;58.35;18.50;;;8.80;99.90;;;;;;6162146;23;20192;-75
2022/12/20 23:17:00;;;;;;;54.88;18.55;;;8.70;99.90;;;;;;6182885;23;20353;-76
2022/12/20 23:23:18;;;;;;;53.90;18.73;;;8.80;99.90;;;;;;6171896;23;20012;-78
2022/12/20 23:26:32;;;;;;;50.85;18.67;;;8.70;99.90;;;;;;6075392;23;20017;-77
2022/12/20 23:29:05;;;;;;;53.28;17.98;;;7.90;99.90;;;;;;5962189;24;20020;-78
2022/12/20 23:31:47;;;;;;;56.72;17.63;;;8.80;99.90;;;;;;5984562;24;20130;-79
2022/12/20 23:34:13;;;;;;;62.08;17.40;;;8.80;99.90;;;;;;6107400;23;20017;-78
2022/12/20 23:36:39;;;;;;;58.75;18.30;;;8.70;99.90;;;;;;6202039;22;20127;-77
2022/12/20 23:39:09;;;;;;;50.33;17.42;;;8.70;99.90;;;;;;6255676;22;20012;-77
2022/12/20 23:41:40;;;;;;;47.35;17.13;;;8.50;99.90;;;;;;6245504;22;20033;-78
2022/12/20 23:44:09;;;;;;;51.30;17.67;;;8.70;99.90;;;;;;6235957;22;20019;-78
2022/12/20 23:46:38;;;;;;;46.88;17.17;;;8.80;99.90;;;;;;6286555;22;20066;-78
2022/12/20 23:49:04;;;;;;;50.70;18.58;;;8.60;99.90;;;;;;6260696;22;20007;-78
2022/12/20 23:51:32;;;;;;;52.42;16.58;;;9.30;99.90;;;;;;6258224;22;20015;-78
